Time;durP1;ratioP1;P1;durP2;ratioP2;P2;SDS_P1;SDS_P2;PMS_P1;PMS_P2;Temp;Humidity;BMP_temperature;BMP_pressure;BME280_temperature;BME280_humidity;BME280_pressure;Samples;Min_cycle;Max_cycle;Signal;HPM_P1;HPM_P2
2023/12/27 00:00:50;;;;;;;8.10;3.20;;;8.60;99.90;;;;;;4126711;28;20426;-62
2023/12/27 00:02:51;;;;;;;9.52;3.25;;;8.60;99.90;;;;;;4136327;28;20038;-62
2023/12/27 00:04:51;;;;;;;8.95;3.05;;;8.60;99.90;;;;;;4131437;28;20038;-62
2023/12/27 00:06:53;;;;;;;7.18;2.55;;;8.60;99.90;;;;;;4132351;28;20049;-62
2023/12/27 00:08:53;;;;;;;11.90;3.85;;;8.50;99.90;;;;;;4134936;28;20039;-62
2023/12/27 00:10:54;;;;;;;8.77;3.60;;;8.50;99.90;;;;;;4134902;28;20049;-62
2023/12/27 00:12:54;;;;;;;8.30;3.17;;;8.50;99.90;;;;;;4134182;28;20095;-62
2023/12/27 00:14:55;;;;;;;9.40;3.63;;;8.50;99.90;;;;;;4131188;28;20102;-62
2023/12/27 00:16:55;;;;;;;9.10;3.72;;;8.50;99.90;;;;;;4136121;28;20041;-62
2023/12/27 00:18:56;;;;;;;9.05;2.97;;;8.40;99.90;;;;;;4130669;28;20038;-62
2023/12/27 00:20:57;;;;;;;12.68;4.10;;;8.40;99.90;;;;;;4133127;28;20393;-62
2023/12/27 00:22:57;;;;;;;10.40;3.42;;;8.40;99.90;;;;;;4138284;28;20046;-62
2023/12/27 00:24:59;;;;;;;6.63;2.85;;;8.40;99.90;;;;;;4140501;28;20078;-62
2023/12/27 00:26:59;;;;;;;8.98;3.03;;;8.40;99.90;;;;;;4135658;28;20109;-63
2023/12/27 00:29:00;;;;;;;8.65;3.20;;;8.40;99.90;;;;;;4134693;28;20469;-63
2023/12/27 00:31:00;;;;;;;8.43;3.15;;;8.30;99.90;;;;;;4131919;28;20088;-63
2023/12/27 00:33:01;;;;;;;11.38;3.30;;;8.30;99.90;;;;;;4136947;28;20042;-62
2023/12/27 00:35:02;;;;;;;12.18;4.10;;;8.30;99.90;;;;;;4137173;28;20375;-63
2023/12/27 00:37:03;;;;;;;10.65;3.47;;;8.30;99.90;;;;;;4134496;28;20514;-62
2023/12/27 00:39:05;;;;;;;11.88;4.00;;;8.30;99.90;;;;;;4133508;28;20045;-62
2023/12/27 00:41:07;;;;;;;9.73;3.38;;;8.30;99.90;;;;;;4129448;28;20399;-62
2023/12/27 00:43:07;;;;;;;11.90;3.78;;;8.20;99.90;;;;;;4134139;28;20034;-62
2023/12/27 00:45:08;;;;;;;10.85;3.25;;;8.20;99.90;;;;;;4136649;28;20042;-62
2023/12/27 00:47:09;;;;;;;11.18;3.80;;;8.20;99.90;;;;;;4137291;28;20046;-63
2023/12/27 00:49:10;;;;;;;7.75;3.28;;;8.20;99.90;;;;;;4134921;28;20107;-62
2023/12/27 00:51:21;;;;;;;7.03;3.10;;;8.20;99.90;;;;;;4134527;28;20116;-66
2023/12/27 00:53:21;;;;;;;6.97;3.13;;;8.10;99.90;;;;;;4137336;28;20050;-65
2023/12/27 00:55:22;;;;;;;7.60;3.13;;;8.10;99.90;;;;;;4136277;28;20477;-65
2023/12/27 00:57:22;;;;;;;9.32;3.03;;;8.10;99.90;;;;;;4132970;28;20081;-65
2023/12/27 00:59:23;;;;;;;7.75;3.58;;;8.10;99.90;;;;;;4133241;28;20042;-65
2023/12/27 01:01:24;;;;;;;6.07;2.72;;;8.10;99.90;;;;;;4129932;28;20030;-65
2023/12/27 01:03:24;;;;;;;8.93;2.65;;;8.10;99.90;;;;;;4144424;28;20541;-65
2023/12/27 01:05:25;;;;;;;7.60;2.40;;;8.10;99.90;;;;;;4128974;28;20628;-65
2023/12/27 01:07:25;;;;;;;9.32;2.97;;;8.10;99.90;;;;;;4138541;28;20041;-64
2023/12/27 01:09:26;;;;;;;12.18;3.53;;;8.00;99.90;;;;;;4140284;28;20036;-65
2023/12/27 01:11:27;;;;;;;11.32;3.13;;;8.00;99.90;;;;;;4133998;28;20041;-65
2023/12/27 01:13:28;;;;;;;11.98;3.33;;;8.00;99.90;;;;;;4137554;28;20054;-65
2023/12/27 01:15:29;;;;;;;5.40;2.40;;;8.00;99.90;;;;;;4140138;28;20439;-65
2023/12/27 01:17:29;;;;;;;7.65;2.97;;;7.90;99.90;;;;;;4134183;28;20065;-66
2023/12/27 01:19:31;;;;;;;6.85;2.80;;;7.90;99.90;;;;;;4134798;28;20053;-65
2023/12/27 01:21:31;;;;;;;7.13;2.53;;;7.90;99.90;;;;;;4140097;28;20042;-65
2023/12/27 01:23:32;;;;;;;8.30;3.10;;;7.90;99.90;;;;;;4143228;28;20510;-65
2023/12/27 01:25:33;;;;;;;10.82;3.50;;;7.80;99.90;;;;;;4139435;28;20037;-65
2023/12/27 01:27:34;;;;;;;9.48;3.08;;;7.80;99.90;;;;;;4142049;28;20052;-65
2023/12/27 01:29:34;;;;;;;8.15;2.78;;;7.70;99.90;;;;;;4136499;28;20473;-65
2023/12/27 01:31:35;;;;;;;8.25;3.17;;;7.70;99.90;;;;;;4141472;28;20045;-64
2023/12/27 01:33:35;;;;;;;7.63;3.35;;;7.70;99.90;;;;;;4134669;28;20043;-65
2023/12/27 01:35:36;;;;;;;10.27;3.42;;;7.70;99.90;;;;;;4142058;28;20042;-65
2023/12/27 01:37:38;;;;;;;6.47;3.25;;;7.70;99.90;;;;;;4141842;28;20461;-65
2023/12/27 01:39:38;;;;;;;7.60;3.08;;;7.70;99.90;;;;;;4136326;28;20125;-65
2023/12/27 01:41:39;;;;;;;9.73;3.50;;;7.70;99.90;;;;;;4141681;28;20470;-65
2023/12/27 01:43:40;;;;;;;9.80;3.50;;;7.70;99.90;;;;;;4140309;28;20070;-64
2023/12/27 01:45:41;;;;;;;11.60;3.60;;;7.70;99.90;;;;;;4136964;28;20030;-65
2023/12/27 01:47:42;;;;;;;7.07;3.80;;;7.70;99.90;;;;;;4138693;28;20145;-65
2023/12/27 01:49:43;;;;;;;8.77;3.38;;;7.70;99.90;;;;;;4134552;28;20113;-65
2023/12/27 01:51:43;;;;;;;5.50;2.95;;;7.70;99.90;;;;;;4141353;28;20401;-65
2023/12/27 01:53:44;;;;;;;11.20;3.80;;;7.60;99.90;;;;;;4137042;28;20034;-65
2023/12/27 01:55:47;;;;;;;9.38;3.28;;;7.60;99.90;;;;;;4132744;28;20030;-65
2023/12/27 01:57:48;;;;;;;7.25;2.92;;;7.60;99.90;;;;;;4144045;28;20588;-65
2023/12/27 01:59:49;;;;;;;10.18;3.53;;;7.60;99.90;;;;;;4135301;28;20042;-73
2023/12/27 02:01:52;;;;;;;8.65;3.30;;;7.60;99.90;;;;;;4132250;28;21494;-84
2023/12/27 02:03:52;;;;;;;10.32;3.70;;;7.60;99.90;;;;;;4142387;28;20092;-81
2023/12/27 02:05:56;;;;;;;9.63;3.83;;;7.60;99.90;;;;;;4135740;28;20397;-81
2023/12/27 02:07:58;;;;;;;10.57;3.75;;;7.60;99.90;;;;;;4137855;28;20072;-81
2023/12/27 02:09:59;;;;;;;12.05;3.60;;;7.50;99.90;;;;;;4134379;28;20045;-81
2023/12/27 02:12:00;;;;;;;10.38;3.65;;;7.50;99.90;;;;;;4128569;28;20406;-81
2023/12/27 02:14:00;;;;;;;8.32;3.40;;;7.50;99.90;;;;;;4133510;28;20046;-73
2023/12/27 02:16:01;;;;;;;11.15;3.47;;;7.50;99.90;;;;;;4140404;28;21245;-80
2023/12/27 02:18:05;;;;;;;8.43;3.30;;;7.40;99.90;;;;;;4139927;28;20038;-80
2023/12/27 02:20:06;;;;;;;12.32;3.40;;;7.40;99.90;;;;;;4138607;28;20042;-81
2023/12/27 02:22:11;;;;;;;11.68;3.63;;;7.40;99.90;;;;;;4136879;28;20142;-80
2023/12/27 02:24:15;;;;;;;11.90;3.40;;;7.40;99.90;;;;;;4138612;28;20045;-75
2023/12/27 02:26:15;;;;;;;12.27;4.13;;;7.40;99.90;;;;;;4135349;28;20545;-80
2023/12/27 02:28:16;;;;;;;10.02;3.90;;;7.40;99.90;;;;;;4139480;28;20034;-80
2023/12/27 02:30:18;;;;;;;12.50;3.90;;;7.30;99.90;;;;;;4140698;28;20037;-80
2023/12/27 02:32:19;;;;;;;8.25;3.92;;;7.30;99.90;;;;;;4136309;28;20042;-81
2023/12/27 02:34:19;;;;;;;8.93;3.30;;;7.30;99.90;;;;;;4137428;28;20578;-80
2023/12/27 02:36:20;;;;;;;11.15;3.10;;;7.30;99.90;;;;;;4134021;28;20038;-80
2023/12/27 02:38:20;;;;;;;12.73;3.50;;;7.30;99.90;;;;;;4136175;28;20042;-80
2023/12/27 02:40:21;;;;;;;7.10;3.33;;;7.20;99.90;;;;;;4137824;28;20049;-80
2023/12/27 02:42:21;;;;;;;8.75;3.40;;;7.30;99.90;;;;;;4138490;28;20048;-80
2023/12/27 02:44:25;;;;;;;9.70;3.10;;;7.20;99.90;;;;;;4143156;28;20046;-81
2023/12/27 02:46:31;;;;;;;10.25;3.50;;;7.30;99.90;;;;;;4131168;28;20453;-80
2023/12/27 02:48:32;;;;;;;9.55;2.90;;;7.20;99.90;;;;;;4136646;28;20072;-80
2023/12/27 02:50:33;;;;;;;8.90;3.00;;;7.20;99.90;;;;;;4141310;28;20034;-79
2023/12/27 02:52:33;;;;;;;5.93;2.70;;;7.20;99.90;;;;;;4136909;28;20399;-80
2023/12/27 02:54:34;;;;;;;10.02;3.50;;;7.20;99.90;;;;;;4131898;28;20033;-79
2023/12/27 02:56:34;;;;;;;7.95;2.95;;;7.20;99.90;;;;;;4130497;28;20041;-81
2023/12/27 02:58:38;;;;;;;9.60;3.45;;;7.20;99.90;;;;;;4130214;28;20039;-79
2023/12/27 03:00:39;;;;;;;8.45;3.40;;;7.30;99.90;;;;;;4136366;28;20033;-80
2023/12/27 03:02:39;;;;;;;16.63;3.88;;;7.20;99.90;;;;;;4134604;28;20384;-80
2023/12/27 03:04:40;;;;;;;7.88;3.20;;;7.20;99.90;;;;;;4133061;28;20124;-80
2023/12/27 03:06:41;;;;;;;9.68;3.67;;;7.20;99.90;;;;;;4134821;28;20030;-80
2023/12/27 03:08:41;;;;;;;7.95;2.95;;;7.20;99.90;;;;;;4134093;28;20472;-80
2023/12/27 03:10:42;;;;;;;6.50;3.15;;;7.20;99.90;;;;;;4139984;28;20466;-80
2023/12/27 03:12:42;;;;;;;7.25;2.78;;;7.20;99.90;;;;;;4140113;28;20047;-81
2023/12/27 03:14:43;;;;;;;16.33;4.15;;;7.20;99.90;;;;;;4136290;28;20145;-74
2023/12/27 03:16:43;;;;;;;8.65;3.63;;;7.20;99.90;;;;;;4133396;28;20509;-79
2023/12/27 03:18:44;;;;;;;13.02;4.18;;;7.20;99.90;;;;;;4134447;28;20566;-79
2023/12/27 03:20:44;;;;;;;11.93;3.50;;;7.20;99.90;;;;;;4133548;28;20053;-79
2023/12/27 03:22:45;;;;;;;6.95;3.10;;;7.10;99.90;;;;;;4136764;28;20096;-80
2023/12/27 03:24:46;;;;;;;8.10;3.53;;;7.10;99.90;;;;;;4126564;28;20042;-81
2023/12/27 03:26:46;;;;;;;7.57;3.38;;;7.10;99.90;;;;;;4136121;28;20077;-81
2023/12/27 03:28:47;;;;;;;10.02;3.55;;;7.10;99.90;;;;;;4132892;28;20405;-80
2023/12/27 03:30:47;;;;;;;9.07;3.60;;;7.10;99.90;;;;;;4131532;28;20041;-81
2023/12/27 03:32:48;;;;;;;9.27;3.20;;;7.00;99.90;;;;;;4132088;28;20058;-79
2023/12/27 03:34:48;;;;;;;8.23;3.28;;;7.00;99.90;;;;;;4138425;28;20084;-80
2023/12/27 03:36:49;;;;;;;9.18;3.35;;;7.00;99.90;;;;;;4134315;28;20042;-81
2023/12/27 03:38:50;;;;;;;10.70;3.92;;;7.00;99.90;;;;;;4134129;28;20049;-80
2023/12/27 03:40:50;;;;;;;7.45;3.38;;;7.00;99.90;;;;;;4136849;28;20065;-81
2023/12/27 03:42:51;;;;;;;11.77;3.35;;;7.00;99.90;;;;;;4137694;28;20049;-80
2023/12/27 03:44:52;;;;;;;11.82;3.88;;;7.00;99.90;;;;;;4138101;28;20501;-80
2023/12/27 03:46:53;;;;;;;11.33;3.33;;;7.00;99.90;;;;;;4137740;28;20046;-80
2023/12/27 03:48:54;;;;;;;11.18;3.67;;;7.00;99.90;;;;;;4136610;28;20038;-80
2023/12/27 03:50:55;;;;;;;8.70;3.22;;;7.00;99.90;;;;;;4136288;28;20030;-80
2023/12/27 03:52:55;;;;;;;11.52;4.03;;;7.10;99.90;;;;;;4133605;28;20125;-81
2023/12/27 03:54:56;;;;;;;11.63;3.78;;;7.00;99.90;;;;;;4114796;28;20038;-80
2023/12/27 03:56:57;;;;;;;8.30;3.50;;;7.00;99.90;;;;;;4134749;28;20038;-80
2023/12/27 03:58:57;;;;;;;9.32;3.25;;;7.00;99.90;;;;;;4137344;28;20367;-81
2023/12/27 04:00:58;;;;;;;10.82;3.38;;;7.00;99.90;;;;;;4134182;28;20686;-81
2023/12/27 04:02:58;;;;;;;9.20;3.38;;;7.00;99.90;;;;;;4139513;28;20470;-81
2023/12/27 04:04:59;;;;;;;10.20;3.40;;;7.00;99.90;;;;;;4140797;28;20413;-80
2023/12/27 04:07:00;;;;;;;9.10;3.45;;;7.10;99.90;;;;;;4130688;28;20046;-80
2023/12/27 04:09:01;;;;;;;7.45;3.50;;;7.00;99.90;;;;;;4140327;28;20038;-80
2023/12/27 04:11:01;;;;;;;10.60;3.60;;;6.90;99.90;;;;;;4141156;28;20418;-81
2023/12/27 04:13:02;;;;;;;8.55;3.40;;;7.00;99.90;;;;;;4134919;28;20054;-81
2023/12/27 04:15:03;;;;;;;8.60;3.22;;;7.00;99.90;;;;;;4138528;28;20359;-80
2023/12/27 04:17:03;;;;;;;10.20;3.35;;;7.00;99.90;;;;;;4133316;28;20113;-79
2023/12/27 04:19:04;;;;;;;9.90;3.00;;;7.00;99.90;;;;;;4136775;28;20115;-79
2023/12/27 04:21:05;;;;;;;11.57;3.45;;;7.00;99.90;;;;;;4133203;28;20033;-73
2023/12/27 04:23:05;;;;;;;9.98;3.60;;;7.00;99.90;;;;;;4140601;28;20115;-72
2023/12/27 04:25:06;;;;;;;15.27;3.40;;;7.10;99.90;;;;;;4134599;28;20092;-73
2023/12/27 04:27:07;;;;;;;10.50;3.88;;;7.10;99.90;;;;;;4137932;28;20128;-72
2023/12/27 04:29:08;;;;;;;10.35;3.75;;;7.00;99.90;;;;;;4135129;28;20478;-73
2023/12/27 04:31:09;;;;;;;7.00;3.50;;;7.00;99.90;;;;;;4140520;28;20030;-73
2023/12/27 04:33:09;;;;;;;9.13;3.65;;;7.10;99.90;;;;;;4136566;28;20445;-73
2023/12/27 04:35:10;;;;;;;11.88;4.10;;;7.00;99.90;;;;;;4135379;28;20116;-74
2023/12/27 04:37:10;;;;;;;11.55;3.55;;;7.10;99.90;;;;;;4138177;28;20045;-73
2023/12/27 04:39:11;;;;;;;13.20;4.30;;;7.10;99.90;;;;;;4138213;28;20044;-73
2023/12/27 04:41:12;;;;;;;11.27;3.95;;;7.10;99.90;;;;;;4130402;28;20057;-74
2023/12/27 04:43:13;;;;;;;7.63;3.85;;;7.10;99.90;;;;;;4137386;28;21154;-73
2023/12/27 04:45:13;;;;;;;7.32;3.58;;;7.10;99.90;;;;;;4140693;28;20046;-74
2023/12/27 04:47:14;;;;;;;7.53;3.72;;;7.10;99.90;;;;;;4136906;28;20038;-72
2023/12/27 04:49:14;;;;;;;12.48;4.07;;;7.10;99.90;;;;;;4147742;28;20061;-72
2023/12/27 04:51:15;;;;;;;10.85;4.18;;;7.10;99.90;;;;;;4143120;28;20096;-72
2023/12/27 04:53:16;;;;;;;9.45;3.67;;;7.10;99.90;;;;;;4136604;28;20041;-72
2023/12/27 04:55:16;;;;;;;10.00;3.65;;;7.10;99.90;;;;;;4135506;28;20543;-72
2023/12/27 04:57:17;;;;;;;8.50;3.95;;;7.10;99.90;;;;;;4141288;28;20394;-72
2023/12/27 04:59:17;;;;;;;8.18;3.38;;;7.10;99.90;;;;;;4140308;28;20068;-73
2023/12/27 05:01:18;;;;;;;12.63;4.53;;;7.10;99.90;;;;;;4142973;28;20091;-73
2023/12/27 05:03:18;;;;;;;7.15;3.38;;;7.20;99.90;;;;;;4142221;28;20128;-73
2023/12/27 05:05:19;;;;;;;9.32;4.15;;;7.10;99.90;;;;;;4142093;28;20463;-72
2023/12/27 05:07:19;;;;;;;9.82;4.30;;;7.20;99.90;;;;;;4133419;28;20046;-73
2023/12/27 05:09:20;;;;;;;12.30;4.32;;;7.10;99.90;;;;;;4137791;28;20043;-73
2023/12/27 05:11:21;;;;;;;9.80;4.18;;;7.10;99.90;;;;;;4135365;28;20062;-73
2023/12/27 05:13:22;;;;;;;12.27;4.50;;;7.10;99.90;;;;;;4143327;28;20382;-73
2023/12/27 05:15:22;;;;;;;13.55;4.30;;;7.20;99.90;;;;;;4133846;28;20118;-73
2023/12/27 05:17:23;;;;;;;12.25;4.32;;;7.10;99.90;;;;;;4134501;28;20073;-73
2023/12/27 05:19:23;;;;;;;7.80;3.42;;;7.20;99.90;;;;;;4132191;28;20467;-73
2023/12/27 05:21:24;;;;;;;11.25;3.63;;;7.20;99.90;;;;;;4138055;28;20375;-73
2023/12/27 05:23:24;;;;;;;13.98;4.15;;;7.20;99.90;;;;;;4137608;28;20030;-72
2023/12/27 05:25:25;;;;;;;9.40;4.13;;;7.20;99.90;;;;;;4130433;28;20034;-73
2023/12/27 05:27:26;;;;;;;10.35;3.63;;;7.20;99.90;;;;;;4133176;28;20074;-73
2023/12/27 05:29:26;;;;;;;10.27;3.70;;;7.10;99.90;;;;;;4139620;28;20369;-73
2023/12/27 05:31:27;;;;;;;12.85;3.72;;;7.10;99.90;;;;;;4135518;28;20113;-67
2023/12/27 05:33:28;;;;;;;10.13;3.70;;;7.10;99.90;;;;;;4134211;28;20046;-68
2023/12/27 05:35:29;;;;;;;7.30;3.05;;;7.20;99.90;;;;;;4142273;28;20041;-67
2023/12/27 05:37:29;;;;;;;10.60;3.70;;;7.20;99.90;;;;;;4135713;28;20046;-68
2023/12/27 05:39:30;;;;;;;12.57;4.22;;;7.20;99.90;;;;;;4131175;28;20046;-68
2023/12/27 05:41:30;;;;;;;10.02;3.50;;;7.10;99.90;;;;;;4133172;28;20477;-68
2023/12/27 05:43:31;;;;;;;12.43;3.72;;;7.10;99.90;;;;;;4135197;28;20490;-68
2023/12/27 05:45:32;;;;;;;15.52;3.67;;;7.10;99.90;;;;;;4132124;28;20035;-67
2023/12/27 05:47:32;;;;;;;10.68;3.30;;;7.10;99.90;;;;;;4134190;28;20054;-68
2023/12/27 05:49:33;;;;;;;11.15;3.33;;;7.00;99.90;;;;;;4132215;28;20084;-68
2023/12/27 05:51:34;;;;;;;8.93;3.15;;;7.10;99.90;;;;;;4138390;28;20100;-68
2023/12/27 05:53:35;;;;;;;8.18;2.95;;;7.10;99.90;;;;;;4142746;28;20504;-68
2023/12/27 05:55:35;;;;;;;7.32;2.67;;;7.10;99.90;;;;;;4142366;28;20474;-68
2023/12/27 05:57:36;;;;;;;8.73;2.97;;;7.10;99.90;;;;;;4144129;28;20129;-68
2023/12/27 05:59:36;;;;;;;11.40;3.35;;;7.10;99.90;;;;;;4143175;28;20521;-68
2023/12/27 06:01:38;;;;;;;6.55;2.38;;;7.20;99.90;;;;;;4138168;28;20036;-68
2023/12/27 06:03:39;;;;;;;7.53;3.05;;;7.20;99.90;;;;;;4135718;28;20052;-68
2023/12/27 06:05:40;;;;;;;9.82;3.55;;;7.20;99.90;;;;;;4132342;28;20031;-67
2023/12/27 06:07:41;;;;;;;9.93;3.10;;;7.20;99.90;;;;;;4134754;28;20042;-67
2023/12/27 06:09:42;;;;;;;8.82;3.10;;;7.30;99.90;;;;;;4135699;28;20050;-68
2023/12/27 06:11:43;;;;;;;10.32;3.17;;;7.20;99.90;;;;;;4132142;28;20034;-68
2023/12/27 06:13:43;;;;;;;11.82;3.00;;;7.20;99.90;;;;;;4140078;28;20542;-68
2023/12/27 06:15:44;;;;;;;8.48;3.13;;;7.20;99.90;;;;;;4134888;28;20046;-70
2023/12/27 06:17:45;;;;;;;11.02;3.15;;;7.30;99.90;;;;;;4136941;28;20042;-68
2023/12/27 06:19:45;;;;;;;11.32;2.60;;;7.30;99.90;;;;;;4141347;28;20068;-68
2023/12/27 06:21:46;;;;;;;10.65;3.05;;;7.30;99.90;;;;;;4130521;28;20394;-68
2023/12/27 06:23:46;;;;;;;8.50;2.88;;;7.30;99.90;;;;;;4137773;28;20105;-68
2023/12/27 06:25:47;;;;;;;9.35;3.10;;;7.30;99.90;;;;;;4134462;28;20048;-68
2023/12/27 06:27:48;;;;;;;10.60;2.90;;;7.30;99.90;;;;;;4140766;28;20492;-68
2023/12/27 06:29:48;;;;;;;8.45;2.80;;;7.30;99.90;;;;;;4140797;28;20056;-68
2023/12/27 06:31:49;;;;;;;8.10;3.00;;;7.30;99.90;;;;;;4137670;28;20136;-68
2023/12/27 06:33:49;;;;;;;11.38;3.45;;;7.30;99.90;;;;;;4130770;28;20523;-68
2023/12/27 06:35:51;;;;;;;7.18;2.78;;;7.30;99.90;;;;;;4136592;28;20038;-68
2023/12/27 06:37:51;;;;;;;6.95;2.72;;;7.30;99.90;;;;;;4133612;28;20046;-68
2023/12/27 06:39:52;;;;;;;13.50;3.03;;;7.30;99.90;;;;;;4132266;28;20038;-79
2023/12/27 06:41:52;;;;;;;9.77;3.08;;;7.30;99.90;;;;;;4132903;28;20073;-73
2023/12/27 06:43:53;;;;;;;8.90;2.53;;;7.40;99.90;;;;;;4141548;28;20121;-73
2023/12/27 06:45:54;;;;;;;10.38;2.80;;;7.30;99.90;;;;;;4126879;28;20039;-73
2023/12/27 06:47:54;;;;;;;8.18;2.78;;;7.40;99.90;;;;;;4140661;28;20479;-72
2023/12/27 06:49:55;;;;;;;11.13;2.80;;;7.40;99.90;;;;;;4136388;28;20097;-73
2023/12/27 06:51:55;;;;;;;6.97;2.83;;;7.40;99.90;;;;;;4132789;28;20053;-73
2023/12/27 06:53:57;;;;;;;8.03;2.80;;;7.40;99.90;;;;;;4138352;28;20054;-72
2023/12/27 06:55:59;;;;;;;10.75;3.10;;;7.40;99.90;;;;;;4132370;28;20311;-73
2023/12/27 06:58:00;;;;;;;7.93;2.63;;;7.40;99.90;;;;;;4136560;28;20033;-73
2023/12/27 07:00:00;;;;;;;13.98;3.85;;;7.40;99.90;;;;;;4138635;28;20165;-73
2023/12/27 07:02:01;;;;;;;9.38;3.10;;;7.40;99.90;;;;;;4141585;28;20165;-73
2023/12/27 07:04:02;;;;;;;9.20;3.00;;;7.40;99.90;;;;;;4133449;28;20111;-73
2023/12/27 07:06:03;;;;;;;8.48;3.03;;;7.40;99.90;;;;;;4135815;28;20418;-73
2023/12/27 07:08:05;;;;;;;7.63;2.50;;;7.40;99.90;;;;;;4133638;28;20100;-73
2023/12/27 07:10:08;;;;;;;9.00;2.93;;;7.40;99.90;;;;;;4136486;28;20402;-73
2023/12/27 07:12:09;;;;;;;;;;;7.40;99.90;;;;;;4140021;28;20474;-72
2023/12/27 07:14:10;;;;;;;7.18;2.45;;;7.50;99.90;;;;;;4141477;28;19982;-72
2023/12/27 07:16:10;;;;;;;12.00;3.42;;;7.50;99.90;;;;;;4137912;28;20129;-73
2023/12/27 07:18:11;;;;;;;9.77;2.83;;;7.40;99.90;;;;;;4140085;28;20061;-73
2023/12/27 07:20:12;;;;;;;6.75;2.47;;;7.40;99.90;;;;;;4133209;28;20049;-74
2023/12/27 07:22:13;;;;;;;7.43;2.88;;;7.40;99.90;;;;;;4134838;28;20446;-73
2023/12/27 07:24:14;;;;;;;6.93;3.00;;;7.50;99.90;;;;;;4136398;28;20073;-73
2023/12/27 07:26:15;;;;;;;7.65;2.88;;;7.50;99.90;;;;;;4134546;28;20466;-73
2023/12/27 07:28:15;;;;;;;12.65;3.40;;;7.50;99.90;;;;;;4136069;28;20473;-73
2023/12/27 07:30:16;;;;;;;5.40;2.30;;;7.50;99.90;;;;;;4136009;28;20034;-74
2023/12/27 07:32:17;;;;;;;10.15;3.00;;;7.60;99.90;;;;;;4135689;28;20047;-73
2023/12/27 07:34:17;;;;;;;8.30;2.97;;;7.50;99.90;;;;;;4137207;28;20057;-73
2023/12/27 07:36:18;;;;;;;10.18;3.78;;;7.50;99.90;;;;;;4129659;28;20096;-74
2023/12/27 07:38:18;;;;;;;10.23;3.25;;;7.50;99.90;;;;;;4137762;28;20078;-76
2023/12/27 07:40:19;;;;;;;10.52;3.03;;;7.50;99.90;;;;;;4136286;28;20406;-75
2023/12/27 07:42:19;;;;;;;8.63;3.15;;;7.50;99.90;;;;;;4139068;28;20038;-76
2023/12/27 07:44:20;;;;;;;10.00;2.92;;;7.50;99.90;;;;;;4133736;28;20034;-77
2023/12/27 07:46:21;;;;;;;8.88;3.50;;;7.50;99.90;;;;;;4135563;28;20092;-77
2023/12/27 07:48:22;;;;;;;9.75;3.17;;;7.50;99.90;;;;;;4135531;28;20443;-76
2023/12/27 07:50:23;;;;;;;7.97;2.60;;;7.50;99.90;;;;;;4135157;28;20046;-63
2023/12/27 07:52:23;;;;;;;10.85;2.85;;;7.50;99.90;;;;;;4136323;28;20193;-64
2023/12/27 07:54:24;;;;;;;7.53;2.85;;;7.50;99.90;;;;;;4139624;28;20039;-64
2023/12/27 07:56:24;;;;;;;6.95;2.90;;;7.50;99.90;;;;;;4137536;28;20064;-64
2023/12/27 07:58:25;;;;;;;7.53;3.17;;;7.50;99.90;;;;;;4140696;28;20448;-64
2023/12/27 08:00:26;;;;;;;9.80;3.10;;;7.50;99.90;;;;;;4140305;28;20041;-64
2023/12/27 08:02:27;;;;;;;9.70;3.25;;;7.50;99.90;;;;;;4139241;28;20070;-64
2023/12/27 08:04:28;;;;;;;8.50;3.35;;;7.50;99.90;;;;;;4141164;28;20045;-64
2023/12/27 08:06:28;;;;;;;11.15;3.63;;;7.50;99.90;;;;;;4142101;28;20042;-64
2023/12/27 08:08:29;;;;;;;8.23;3.63;;;7.50;99.90;;;;;;4141604;28;20034;-63
2023/12/27 08:10:31;;;;;;;9.23;3.10;;;7.50;99.90;;;;;;4138055;28;20184;-64
2023/12/27 08:12:31;;;;;;;10.77;4.00;;;7.50;99.90;;;;;;4139073;28;20088;-64
2023/12/27 08:14:32;;;;;;;7.93;3.25;;;7.50;99.90;;;;;;4142401;28;20788;-64
2023/12/27 08:16:32;;;;;;;7.63;3.25;;;7.50;99.90;;;;;;4137080;28;20053;-64
2023/12/27 08:18:33;;;;;;;5.97;2.95;;;7.50;99.90;;;;;;4144108;28;20038;-64
2023/12/27 08:20:34;;;;;;;4.40;2.72;;;7.60;99.90;;;;;;4140722;28;20474;-64
2023/12/27 08:22:35;;;;;;;8.43;3.30;;;7.60;99.90;;;;;;4141138;28;20045;-64
2023/12/27 08:24:35;;;;;;;6.50;3.55;;;7.60;99.90;;;;;;4143003;28;20125;-64
2023/12/27 08:26:36;;;;;;;6.32;3.25;;;7.60;99.90;;;;;;4142349;28;20034;-64
2023/12/27 08:28:37;;;;;;;8.95;3.78;;;7.60;99.90;;;;;;4145745;28;20069;-64
2023/12/27 08:30:37;;;;;;;7.90;3.72;;;7.60;99.90;;;;;;4147454;28;20129;-65
2023/12/27 08:32:38;;;;;;;8.38;3.35;;;7.70;99.90;;;;;;4148362;28;20117;-64
2023/12/27 08:34:39;;;;;;;9.02;3.55;;;7.60;99.90;;;;;;4146982;28;20038;-65
2023/12/27 08:36:40;;;;;;;6.63;3.13;;;7.70;99.90;;;;;;4153009;28;20041;-64
2023/12/27 08:38:41;;;;;;;6.97;3.13;;;7.70;99.90;;;;;;4165062;28;20358;-64
2023/12/27 08:40:41;;;;;;;6.10;3.42;;;7.80;99.90;;;;;;4150473;28;20052;-65
2023/12/27 08:42:42;;;;;;;8.90;3.25;;;7.80;99.90;;;;;;4148497;28;20096;-64
2023/12/27 08:44:42;;;;;;;8.35;3.30;;;7.80;99.90;;;;;;4148552;28;20394;-64
2023/12/27 08:46:43;;;;;;;7.38;3.60;;;7.80;99.90;;;;;;4147219;28;20065;-64
2023/12/27 08:48:46;;;;;;;7.18;3.53;;;7.90;99.90;;;;;;4148353;28;20034;-64
2023/12/27 08:50:48;;;;;;;;;;;7.90;99.90;;;;;;4148018;28;20038;-64
2023/12/27 08:52:48;;;;;;;4.93;3.15;;;7.90;99.90;;;;;;4147789;28;20012;-64
2023/12/27 08:54:49;;;;;;;10.02;3.75;;;7.90;99.90;;;;;;4148532;28;20536;-64
2023/12/27 08:56:50;;;;;;;8.27;3.47;;;7.90;99.90;;;;;;4143675;28;20552;-64
2023/12/27 08:58:51;;;;;;;7.47;3.80;;;7.90;99.90;;;;;;4132214;28;20038;-64
2023/12/27 09:00:51;;;;;;;11.55;4.20;;;8.00;99.90;;;;;;4131281;28;20382;-64
2023/12/27 09:02:52;;;;;;;7.82;3.70;;;8.00;99.90;;;;;;4131859;28;20035;-64
2023/12/27 09:04:53;;;;;;;8.23;3.20;;;8.00;99.90;;;;;;4132168;28;20100;-64
2023/12/27 09:06:53;;;;;;;13.43;4.82;;;8.00;99.90;;;;;;4144134;28;20443;-64
2023/12/27 09:08:54;;;;;;;10.38;3.08;;;8.00;99.90;;;;;;4142962;28;20493;-64
2023/12/27 09:10:54;;;;;;;8.20;4.07;;;8.10;99.90;;;;;;4143974;28;20030;-64
2023/12/27 09:12:55;;;;;;;8.90;4.00;;;8.10;99.90;;;;;;4138762;28;20052;-64
2023/12/27 09:14:56;;;;;;;9.23;3.80;;;8.10;99.90;;;;;;4141811;28;20084;-64
2023/12/27 09:16:57;;;;;;;10.88;4.10;;;8.10;99.90;;;;;;4142115;28;20046;-64
2023/12/27 09:18:59;;;;;;;11.30;4.10;;;8.10;99.90;;;;;;4144429;28;20045;-63
2023/12/27 09:20:59;;;;;;;7.07;3.33;;;8.20;99.90;;;;;;4138958;28;20385;-64
2023/12/27 09:23:00;;;;;;;9.23;3.90;;;8.20;99.90;;;;;;4131816;28;20066;-64
2023/12/27 09:25:01;;;;;;;7.55;3.60;;;8.20;99.90;;;;;;4140696;28;20037;-64
2023/12/27 09:27:03;;;;;;;6.53;3.15;;;8.20;99.90;;;;;;4141592;28;20041;-64
2023/12/27 09:29:04;;;;;;;8.48;3.35;;;8.30;99.90;;;;;;4139045;28;20035;-64
2023/12/27 09:31:05;;;;;;;9.68;3.63;;;8.30;99.90;;;;;;4133639;28;20038;-63
2023/12/27 09:33:05;;;;;;;10.90;3.85;;;8.30;99.90;;;;;;4138239;28;20050;-63
2023/12/27 09:35:06;;;;;;;8.48;4.00;;;8.30;99.90;;;;;;4155089;28;20061;-65
2023/12/27 09:37:07;;;;;;;9.52;3.67;;;8.30;99.90;;;;;;4135474;28;20030;-64
2023/12/27 09:39:11;;;;;;;7.93;3.92;;;8.30;99.90;;;;;;4142400;28;20069;-64
2023/12/27 09:41:13;;;;;;;9.57;3.58;;;8.40;99.90;;;;;;4140514;28;20057;-64
2023/12/27 09:43:15;;;;;;;9.98;3.67;;;8.40;99.90;;;;;;4143277;28;20068;-64
2023/12/27 09:45:17;;;;;;;14.27;4.60;;;8.40;99.90;;;;;;4141211;28;20034;-64
2023/12/27 09:47:18;;;;;;;10.25;3.75;;;8.40;99.90;;;;;;4137399;28;20053;-64
2023/12/27 09:49:21;;;;;;;11.17;4.30;;;8.40;99.90;;;;;;4134944;28;20046;-64
2023/12/27 09:51:25;;;;;;;;;;;8.40;99.90;;;;;;4130528;28;20429;-64
2023/12/27 09:53:25;;;;;;;8.85;3.58;;;8.40;99.90;;;;;;4143397;28;19931;-63
2023/12/27 09:55:26;;;;;;;10.45;3.78;;;8.40;99.90;;;;;;4138658;28;20635;-64
2023/12/27 09:57:27;;;;;;;7.38;3.40;;;8.50;99.90;;;;;;4143055;28;20117;-63
2023/12/27 09:59:29;;;;;;;11.13;3.38;;;8.50;99.90;;;;;;4145756;28;20597;-63
2023/12/27 10:01:30;;;;;;;8.27;3.00;;;8.50;99.90;;;;;;4145487;28;20390;-63
2023/12/27 10:03:38;;;;;;;5.95;3.35;;;8.50;99.90;;;;;;4145377;28;20486;-62
2023/12/27 10:05:58;;;;;;;9.27;3.40;;;8.50;99.90;;;;;;4143684;28;20128;-66
2023/12/27 10:08:00;;;;;;;9.82;3.78;;;8.50;99.90;;;;;;4140501;28;20490;-62
2023/12/27 10:10:01;;;;;;;8.75;3.45;;;8.50;99.90;;;;;;4144751;28;20030;-62
2023/12/27 10:12:01;;;;;;;7.60;3.10;;;8.60;99.90;;;;;;4143442;28;20116;-62
2023/12/27 10:14:04;;;;;;;11.45;3.47;;;8.60;99.90;;;;;;4144992;28;20405;-63
2023/12/27 10:16:05;;;;;;;;;;;8.60;99.90;;;;;;4144049;28;20478;-62
2023/12/27 10:18:07;;;;;;;7.05;3.20;;;8.60;99.90;;;;;;4145127;28;19917;-63
2023/12/27 10:20:08;;;;;;;9.10;3.05;;;8.70;99.90;;;;;;4143278;28;20046;-66
2023/12/27 10:22:10;;;;;;;9.63;3.63;;;8.60;99.90;;;;;;4156092;28;20041;-75
2023/12/27 10:24:11;;;;;;;8.95;3.45;;;8.70;99.90;;;;;;4145292;28;20042;-77
2023/12/27 10:26:12;;;;;;;6.55;3.15;;;8.70;99.90;;;;;;4140959;28;20040;-78
2023/12/27 10:28:13;;;;;;;12.90;3.75;;;8.70;99.90;;;;;;4138399;28;20045;-76
2023/12/27 10:30:18;;;;;;;5.05;2.70;;;8.70;99.90;;;;;;4144748;28;20034;-69
2023/12/27 10:32:19;;;;;;;10.13;3.30;;;8.80;99.90;;;;;;4141125;28;20041;-70
2023/12/27 10:34:21;;;;;;;10.43;3.53;;;8.80;99.90;;;;;;4144429;28;20433;-69
2023/12/27 10:36:23;;;;;;;6.50;2.75;;;8.80;99.90;;;;;;4139831;28;20045;-70